Time;durP1;ratioP1;P1;durP2;ratioP2;P2;SDS_P1;SDS_P2;PMS_P1;PMS_P2;Temp;Humidity;BMP_temperature;BMP_pressure;BME280_temperature;BME280_humidity;BME280_pressure;Samples;Min_cycle;Max_cycle;Signal;HPM_P1;HPM_P2
2021/12/23 00:01:18;;;;;;;26.00;12.95;;;-0.50;99.90;;;;;;6098867;23;20021;-81
2021/12/23 00:03:44;;;;;;;25.27;13.07;;;-0.50;99.90;;;;;;6097995;23;20501;-81
2021/12/23 00:06:10;;;;;;;22.45;12.00;;;-0.60;99.90;;;;;;6122524;23;20117;-81
2021/12/23 00:08:36;;;;;;;21.02;12.10;;;-0.60;99.90;;;;;;6098022;23;20538;-80
2021/12/23 00:11:01;;;;;;;22.42;12.80;;;-0.50;99.90;;;;;;6122598;23;20056;-81
2021/12/23 00:13:27;;;;;;;27.15;13.77;;;-0.50;99.90;;;;;;6097759;23;20022;-81
2021/12/23 00:18:58;;;;;;;21.73;11.55;;;-0.50;99.90;;;;;;6097558;23;20185;-81
2021/12/23 00:24:08;;;;;;;20.85;11.07;;;-0.50;99.90;;;;;;6097361;23;20029;-81
2021/12/23 00:26:33;;;;;;;21.20;12.13;;;-0.60;99.90;;;;;;6098021;23;20021;-81
2021/12/23 00:29:00;;;;;;;20.55;11.57;;;-0.60;99.90;;;;;;6100148;23;20470;-81
2021/12/23 00:31:26;;;;;;;23.15;12.43;;;-0.60;99.90;;;;;;6098041;23;20580;-81
2021/12/23 00:33:52;;;;;;;19.90;11.50;;;-0.60;99.90;;;;;;6097694;23;20089;-81
2021/12/23 00:36:17;;;;;;;23.50;12.68;;;-0.50;99.90;;;;;;6097447;23;20029;-81
2021/12/23 00:38:49;;;;;;;23.45;12.23;;;-0.50;99.90;;;;;;6097462;23;20058;-81
2021/12/23 00:41:15;;;;;;;23.25;12.38;;;-0.50;99.90;;;;;;6097862;23;20060;-81
2021/12/23 00:43:45;;;;;;;22.27;12.18;;;-0.50;99.90;;;;;;6073769;23;20071;-80
2021/12/23 00:46:11;;;;;;;20.98;12.15;;;-0.50;99.90;;;;;;6098064;23;20018;-81
2021/12/23 00:48:39;;;;;;;22.40;12.23;;;-0.50;99.90;;;;;;6097675;23;20126;-81
2021/12/23 00:51:09;;;;;;;21.13;11.55;;;-0.50;99.90;;;;;;6100840;23;20024;-81
2021/12/23 00:53:38;;;;;;;28.42;11.52;;;-0.50;99.90;;;;;;6186681;23;20100;-81
2021/12/23 00:56:05;;;;;;;20.60;12.18;;;-0.40;99.90;;;;;;6163011;23;20025;-81
2021/12/23 00:58:31;;;;;;;24.55;13.07;;;-0.40;99.90;;;;;;6187390;23;20067;-80
2021/12/23 01:00:59;;;;;;;23.83;12.75;;;-0.40;99.90;;;;;;6187439;23;20021;-81
2021/12/23 01:03:25;;;;;;;21.88;12.00;;;-0.40;99.90;;;;;;6189011;23;20036;-79
2021/12/23 01:05:52;;;;;;;24.35;13.13;;;-0.30;99.90;;;;;;6189354;23;20100;-80
2021/12/23 01:08:19;;;;;;;23.55;12.63;;;-0.30;99.90;;;;;;6187724;23;20021;-81
2021/12/23 01:10:52;;;;;;;22.60;12.85;;;-0.30;99.90;;;;;;6187698;23;20024;-81
2021/12/23 01:13:19;;;;;;;23.15;12.13;;;-0.30;99.90;;;;;;6187492;23;20017;-80
2021/12/23 01:16:07;;;;;;;20.52;12.10;;;-0.20;99.90;;;;;;6187414;23;20495;-80
2021/12/23 01:18:42;;;;;;;21.92;12.50;;;-0.20;99.90;;;;;;6187251;23;20515;-81
2021/12/23 01:21:16;;;;;;;21.70;11.88;;;-0.30;99.90;;;;;;6187415;23;20051;-80
2021/12/23 01:23:56;;;;;;;22.95;11.95;;;-0.20;99.90;;;;;;6187194;23;20349;-81
2021/12/23 01:26:23;;;;;;;22.58;13.15;;;-0.20;99.90;;;;;;6162450;23;20527;-81
2021/12/23 01:28:56;;;;;;;23.63;11.73;;;-0.20;99.90;;;;;;6162518;23;20020;-80
2021/12/23 01:31:28;;;;;;;22.35;12.07;;;-0.20;99.90;;;;;;6189236;23;20099;-80
2021/12/23 01:33:57;;;;;;;22.98;11.68;;;-0.20;99.90;;;;;;6186951;23;20021;-80
2021/12/23 01:36:29;;;;;;;25.88;11.68;;;-0.30;99.90;;;;;;6214012;23;20024;-80
2021/12/23 01:39:02;;;;;;;22.35;12.25;;;-0.30;99.90;;;;;;6186561;23;20111;-79
2021/12/23 01:41:29;;;;;;;26.48;14.15;;;-0.20;99.90;;;;;;6187047;23;20122;-80
2021/12/23 01:43:55;;;;;;;21.88;12.32;;;-0.20;99.90;;;;;;6186906;23;20032;-80
2021/12/23 01:46:22;;;;;;;24.48;12.40;;;-0.20;99.90;;;;;;6188550;23;20360;-80
2021/12/23 01:48:48;;;;;;;25.35;14.18;;;-0.20;99.90;;;;;;6189414;23;20066;-80
2021/12/23 01:51:14;;;;;;;20.90;11.85;;;-0.30;99.90;;;;;;6215566;23;20020;-80
2021/12/23 01:53:40;;;;;;;20.90;11.77;;;-0.20;99.90;;;;;;6213905;23;20088;-80
2021/12/23 01:56:20;;;;;;;22.88;12.43;;;-0.10;99.90;;;;;;6216075;23;20090;-81
2021/12/23 01:58:55;;;;;;;26.58;13.80;;;-0.10;99.90;;;;;;6218933;23;20104;-81
2021/12/23 02:01:21;;;;;;;27.00;14.30;;;-0.10;99.90;;;;;;6189074;23;20189;-81
2021/12/23 02:03:46;;;;;;;24.80;13.20;;;-0.10;99.90;;;;;;6164431;23;20484;-81
2021/12/23 02:06:12;;;;;;;26.60;13.68;;;-0.10;99.90;;;;;;6188742;23;20016;-81
2021/12/23 02:08:39;;;;;;;30.42;14.18;;;0.00;99.90;;;;;;6189499;23;20096;-80
2021/12/23 02:11:07;;;;;;;22.77;12.50;;;0.00;99.90;;;;;;6216145;23;20024;-80
2021/12/23 02:13:34;;;;;;;25.27;13.13;;;0.00;99.90;;;;;;6214428;23;20472;-81
2021/12/23 02:16:01;;;;;;;23.95;13.75;;;0.00;99.90;;;;;;6163547;23;20464;-81
2021/12/23 02:18:27;;;;;;;21.90;12.13;;;0.00;99.90;;;;;;6188799;23;20060;-80
2021/12/23 02:20:54;;;;;;;25.58;14.32;;;0.10;99.90;;;;;;6189115;23;20024;-80
2021/12/23 02:23:24;;;;;;;23.65;13.45;;;0.00;99.90;;;;;;6165555;23;20024;-80
2021/12/23 02:25:50;;;;;;;23.55;13.25;;;0.00;99.90;;;;;;6215236;23;20082;-81
2021/12/23 02:28:17;;;;;;;27.55;13.85;;;0.00;99.90;;;;;;6188723;23;20021;-80
2021/12/23 02:30:51;;;;;;;27.52;14.02;;;0.00;99.90;;;;;;6188852;23;20348;-81
2021/12/23 02:33:34;;;;;;;22.38;13.38;;;0.00;99.90;;;;;;6190693;23;20359;-80
2021/12/23 02:36:00;;;;;;;25.45;13.95;;;0.00;99.90;;;;;;6188294;23;20021;-81
2021/12/23 02:38:27;;;;;;;27.35;13.32;;;0.00;99.90;;;;;;6188450;23;20112;-81
2021/12/23 02:40:53;;;;;;;22.27;12.32;;;-0.10;99.90;;;;;;6213641;23;20150;-80
2021/12/23 02:43:22;;;;;;;25.23;13.02;;;-0.10;99.90;;;;;;6188544;23;20136;-81
2021/12/23 02:45:50;;;;;;;25.40;13.73;;;-0.10;99.90;;;;;;6188478;23;20487;-81
2021/12/23 02:48:22;;;;;;;24.50;13.57;;;-0.10;99.90;;;;;;6163516;23;20107;-82
2021/12/23 02:50:56;;;;;;;27.23;13.57;;;0.00;99.90;;;;;;6188237;23;20044;-81
2021/12/23 02:53:22;;;;;;;28.10;15.00;;;-0.10;99.90;;;;;;6217144;23;20060;-80
2021/12/23 02:55:48;;;;;;;23.02;13.23;;;-0.10;99.90;;;;;;6189768;23;20028;-81
2021/12/23 02:58:15;;;;;;;22.52;13.30;;;-0.10;99.90;;;;;;6188214;23;20028;-81
2021/12/23 03:00:44;;;;;;;23.48;14.70;;;0.00;99.90;;;;;;6163332;23;20090;-81
2021/12/23 03:03:10;;;;;;;27.90;14.65;;;0.00;99.90;;;;;;6188086;23;20456;-81
2021/12/23 03:05:36;;;;;;;26.75;14.20;;;0.00;99.90;;;;;;6188107;23;20025;-82
2021/12/23 03:08:03;;;;;;;25.70;13.18;;;0.00;99.90;;;;;;6188257;23;20020;-81
2021/12/23 03:10:29;;;;;;;23.58;13.38;;;0.00;99.90;;;;;;6163407;23;20025;-82
2021/12/23 03:12:55;;;;;;;21.27;12.55;;;0.00;99.90;;;;;;6188070;23;20112;-81
2021/12/23 03:15:21;;;;;;;28.52;15.55;;;0.00;99.90;;;;;;6213424;23;20066;-81
2021/12/23 03:17:50;;;;;;;22.85;13.25;;;0.00;99.90;;;;;;6213123;23;20028;-82
2021/12/23 03:20:17;;;;;;;25.85;14.43;;;0.00;99.90;;;;;;6188056;23;20028;-82
2021/12/23 03:22:43;;;;;;;25.45;14.52;;;0.00;99.90;;;;;;6165190;23;20484;-83
2021/12/23 03:25:09;;;;;;;25.13;13.05;;;0.00;99.90;;;;;;6188011;23;20127;-82
2021/12/23 03:27:35;;;;;;;27.00;15.10;;;0.00;99.90;;;;;;6213066;23;20029;-82
2021/12/23 03:30:01;;;;;;;26.23;14.10;;;0.00;99.90;;;;;;6187991;23;20031;-81
2021/12/23 03:32:27;;;;;;;27.73;15.10;;;0.00;99.90;;;;;;6187882;23;20052;-81
2021/12/23 03:34:53;;;;;;;23.83;14.38;;;0.00;99.90;;;;;;6212948;23;20032;-81
2021/12/23 03:37:19;;;;;;;23.10;12.57;;;0.10;99.90;;;;;;6187698;23;20124;-81
2021/12/23 03:39:47;;;;;;;23.27;13.38;;;0.00;99.90;;;;;;6187539;23;20341;-82
2021/12/23 03:42:14;;;;;;;28.15;14.18;;;0.10;99.90;;;;;;6187902;23;20020;-81
2021/12/23 03:44:43;;;;;;;24.42;12.95;;;0.00;99.90;;;;;;6212867;23;20106;-82
2021/12/23 03:47:09;;;;;;;22.65;12.93;;;0.10;99.90;;;;;;6187767;23;20090;-82
2021/12/23 03:49:35;;;;;;;22.67;13.05;;;0.10;99.90;;;;;;6187662;23;20039;-81
2021/12/23 03:52:01;;;;;;;21.50;11.48;;;0.10;99.90;;;;;;6213086;22;20403;-81
2021/12/23 03:54:27;;;;;;;22.80;12.57;;;0.00;99.90;;;;;;6189988;23;20475;-82
2021/12/23 03:56:53;;;;;;;20.80;12.57;;;0.10;99.90;;;;;;6163054;23;20017;-81
2021/12/23 03:59:19;;;;;;;23.08;12.85;;;0.10;99.90;;;;;;6212622;23;20028;-80
2021/12/23 04:02:00;;;;;;;20.88;11.80;;;0.10;99.90;;;;;;6210307;23;20028;-81
2021/12/23 04:04:25;;;;;;;23.70;14.02;;;0.10;99.90;;;;;;6162877;23;20352;-81
2021/12/23 04:06:51;;;;;;;23.80;13.02;;;0.10;99.90;;;;;;6187494;23;20138;-82
2021/12/23 04:09:18;;;;;;;22.60;13.05;;;0.10;99.90;;;;;;6187422;23;20017;-80
2021/12/23 04:11:44;;;;;;;22.08;11.95;;;0.10;99.90;;;;;;6163075;23;20055;-80
2021/12/23 04:14:10;;;;;;;22.67;12.70;;;0.20;99.90;;;;;;6162794;23;20017;-82
2021/12/23 04:16:36;;;;;;;22.65;12.30;;;0.10;99.90;;;;;;6188000;23;20033;-82
2021/12/23 04:19:11;;;;;;;24.08;13.15;;;0.20;99.90;;;;;;6188504;23;20028;-82
2021/12/23 04:21:38;;;;;;;26.63;13.32;;;0.20;99.90;;;;;;6190089;23;20017;-81
2021/12/23 04:24:05;;;;;;;25.80;13.80;;;0.20;99.90;;;;;;6162348;23;20453;-83
2021/12/23 04:26:31;;;;;;;19.00;12.02;;;0.20;99.90;;;;;;6187812;23;20024;-82
2021/12/23 04:28:56;;;;;;;26.63;13.95;;;0.30;99.90;;;;;;6162902;23;20024;-82
2021/12/23 04:31:24;;;;;;;27.08;14.65;;;0.20;99.90;;;;;;6162625;23;20017;-82
2021/12/23 04:33:53;;;;;;;23.33;13.23;;;0.20;99.90;;;;;;6187471;23;20025;-81
2021/12/23 04:36:19;;;;;;;23.02;14.68;;;0.20;99.90;;;;;;6187315;23;20031;-82
2021/12/23 04:38:46;;;;;;;22.15;13.23;;;0.20;99.90;;;;;;6187199;23;20029;-82
2021/12/23 04:41:13;;;;;;;26.45;15.32;;;0.20;99.90;;;;;;6187232;23;20021;-82
2021/12/23 04:43:39;;;;;;;24.55;13.68;;;0.30;99.90;;;;;;6187154;23;20166;-82
2021/12/23 04:46:10;;;;;;;23.73;13.98;;;0.30;99.90;;;;;;6187771;23;20355;-83
2021/12/23 04:48:45;;;;;;;23.33;13.98;;;0.40;99.90;;;;;;6188771;23;20056;-82
2021/12/23 04:51:11;;;;;;;23.85;13.00;;;0.40;99.90;;;;;;6188502;23;20024;-83
2021/12/23 04:53:45;;;;;;;23.73;13.55;;;0.40;99.90;;;;;;6161474;23;20490;-82
2021/12/23 04:56:17;;;;;;;30.58;15.45;;;0.40;99.90;;;;;;6187227;23;20044;-82
2021/12/23 04:58:43;;;;;;;29.05;14.00;;;0.50;99.90;;;;;;6187062;23;20078;-82
2021/12/23 05:01:19;;;;;;;25.35;13.40;;;0.40;99.90;;;;;;6187150;23;20357;-82
2021/12/23 05:03:47;;;;;;;25.90;14.40;;;0.40;99.90;;;;;;6214099;23;20020;-82
2021/12/23 05:06:14;;;;;;;26.70;14.23;;;0.40;99.90;;;;;;6187181;23;20024;-81
2021/12/23 05:08:40;;;;;;;24.50;13.93;;;0.40;99.90;;;;;;6187270;23;20021;-81
2021/12/23 05:11:06;;;;;;;25.63;14.38;;;0.40;99.90;;;;;;6187424;23;20029;-82
2021/12/23 05:13:31;;;;;;;25.17;13.77;;;0.40;99.90;;;;;;6187194;23;20023;-81
2021/12/23 05:15:57;;;;;;;25.35;13.15;;;0.50;99.90;;;;;;6217327;23;20021;-83
2021/12/23 05:18:23;;;;;;;21.52;13.02;;;0.50;99.90;;;;;;6187584;23;20478;-82
2021/12/23 05:20:49;;;;;;;25.13;13.85;;;0.50;99.90;;;;;;6164456;23;20025;-81
2021/12/23 05:23:16;;;;;;;25.50;13.32;;;0.50;99.90;;;;;;6164673;23;20032;-82
2021/12/23 05:25:43;;;;;;;25.35;13.38;;;0.50;99.90;;;;;;6189040;23;20031;-83
2021/12/23 05:28:10;;;;;;;30.13;17.33;;;0.60;99.90;;;;;;6163509;23;20020;-82
2021/12/23 05:30:38;;;;;;;29.02;16.17;;;0.60;99.90;;;;;;6165206;23;20081;-83
2021/12/23 05:33:04;;;;;;;31.48;15.80;;;0.60;99.90;;;;;;6164273;23;20020;-82
2021/12/23 05:35:30;;;;;;;25.85;15.07;;;0.60;99.90;;;;;;6213032;23;20016;-82
2021/12/23 05:37:55;;;;;;;28.23;14.52;;;0.70;99.90;;;;;;6164238;23;20036;-83
2021/12/23 05:40:29;;;;;;;28.63;13.95;;;0.60;99.90;;;;;;6189024;23;20029;-81
2021/12/23 05:43:04;;;;;;;28.40;14.95;;;0.70;99.90;;;;;;6190419;23;20028;-81
2021/12/23 05:45:30;;;;;;;27.73;14.55;;;0.70;99.90;;;;;;6216213;23;20036;-83
2021/12/23 05:47:57;;;;;;;29.98;13.70;;;0.70;99.90;;;;;;6188938;23;20048;-82
2021/12/23 05:50:35;;;;;;;30.47;15.03;;;0.60;99.90;;;;;;6165433;23;20461;-82
2021/12/23 05:53:00;;;;;;;23.67;13.63;;;0.60;99.90;;;;;;6188191;23;20075;-84
2021/12/23 05:55:26;;;;;;;26.55;14.30;;;0.60;99.90;;;;;;6214467;23;20341;-83
2021/12/23 05:57:54;;;;;;;22.75;13.13;;;0.60;99.90;;;;;;6188083;23;20396;-84
2021/12/23 06:00:34;;;;;;;24.10;13.90;;;0.60;99.90;;;;;;6188284;23;20030;-82
2021/12/23 06:03:03;;;;;;;26.02;14.63;;;0.60;99.90;;;;;;6164016;23;20095;-82
2021/12/23 06:05:29;;;;;;;27.40;14.77;;;0.60;99.90;;;;;;6163834;23;20404;-82
2021/12/23 06:07:56;;;;;;;26.38;14.57;;;0.60;99.90;;;;;;6214001;23;20539;-83
2021/12/23 06:10:22;;;;;;;25.73;15.32;;;0.60;99.90;;;;;;6166186;23;20337;-84
2021/12/23 06:12:48;;;;;;;27.52;15.18;;;0.60;99.90;;;;;;6213810;23;20024;-83
2021/12/23 06:15:14;;;;;;;27.55;14.95;;;0.60;99.90;;;;;;6188551;23;20020;-83
2021/12/23 06:17:41;;;;;;;27.98;15.45;;;0.60;99.90;;;;;;6187557;23;20037;-83
2021/12/23 06:20:27;;;;;;;27.98;16.20;;;0.50;99.90;;;;;;6192830;23;20035;-83
2021/12/23 06:22:53;;;;;;;28.75;14.90;;;0.60;99.90;;;;;;6188264;23;20025;-83
2021/12/23 06:25:19;;;;;;;28.83;15.85;;;0.50;99.90;;;;;;6188882;23;20025;-82
2021/12/23 06:27:45;;;;;;;31.77;16.05;;;0.60;99.90;;;;;;6188609;23;20025;-83
2021/12/23 06:30:24;;;;;;;24.80;14.55;;;0.60;99.90;;;;;;6187403;23;20111;-83
2021/12/23 06:33:14;;;;;;;31.65;17.23;;;0.60;99.90;;;;;;6215176;23;20423;-83
2021/12/23 06:35:40;;;;;;;29.42;15.60;;;0.60;99.90;;;;;;6163579;23;20025;-83
2021/12/23 06:38:13;;;;;;;28.92;15.70;;;0.60;99.90;;;;;;6187669;23;20031;-83
2021/12/23 06:40:41;;;;;;;31.95;17.23;;;0.60;99.90;;;;;;6215249;23;20028;-83
2021/12/23 06:43:07;;;;;;;28.27;16.20;;;0.60;99.90;;;;;;6163710;23;20025;-83
2021/12/23 06:45:33;;;;;;;30.83;16.15;;;0.60;99.90;;;;;;6188330;23;20389;-83
2021/12/23 06:48:00;;;;;;;32.05;18.00;;;0.60;99.90;;;;;;6187587;23;20059;-83
2021/12/23 06:50:26;;;;;;;28.65;15.77;;;0.60;99.90;;;;;;6187003;23;20087;-82
2021/12/23 06:52:52;;;;;;;37.15;17.05;;;0.60;99.90;;;;;;6187945;23;20024;-83
2021/12/23 06:55:19;;;;;;;29.67;16.77;;;0.70;99.90;;;;;;6187335;23;20471;-82
2021/12/23 06:57:55;;;;;;;29.33;16.58;;;0.60;99.90;;;;;;6186902;23;20484;-82
2021/12/23 07:00:22;;;;;;;30.35;17.00;;;0.60;99.90;;;;;;6188110;23;20028;-82
2021/12/23 07:02:48;;;;;;;30.02;16.65;;;0.60;99.90;;;;;;6187237;23;20082;-83
2021/12/23 07:05:18;;;;;;;30.73;16.80;;;0.60;99.90;;;;;;6187376;23;20361;-83
2021/12/23 07:07:56;;;;;;;30.67;16.88;;;0.60;99.90;;;;;;6122329;23;20049;-82
2021/12/23 07:10:26;;;;;;;30.90;17.55;;;0.60;99.90;;;;;;6098209;23;20018;-83
2021/12/23 07:12:52;;;;;;;32.50;17.38;;;0.70;99.90;;;;;;6097897;23;20033;-83
2021/12/23 07:15:24;;;;;;;30.25;17.48;;;0.70;99.90;;;;;;6098292;23;20028;-83
2021/12/23 07:17:54;;;;;;;33.00;18.67;;;0.70;99.90;;;;;;6098097;23;20021;-83
2021/12/23 07:20:22;;;;;;;33.45;17.88;;;0.70;99.90;;;;;;6097826;23;20387;-82
2021/12/23 07:22:48;;;;;;;34.42;17.65;;;0.70;99.90;;;;;;6077462;23;20022;-82
2021/12/23 07:25:15;;;;;;;32.75;17.85;;;0.70;99.90;;;;;;6127888;23;20026;-83
2021/12/23 07:27:41;;;;;;;29.65;16.85;;;0.70;99.90;;;;;;6122345;23;20038;-82
2021/12/23 07:30:10;;;;;;;29.33;16.25;;;0.70;99.90;;;;;;6122571;23;20021;-83
2021/12/23 07:32:46;;;;;;;34.85;16.90;;;0.70;99.90;;;;;;6097819;23;20096;-83
2021/12/23 07:35:16;;;;;;;32.85;16.90;;;0.70;99.90;;;;;;6122644;23;20029;-85
2021/12/23 07:37:42;;;;;;;29.27;16.80;;;0.70;99.90;;;;;;6104466;23;20029;-83
2021/12/23 07:40:09;;;;;;;31.58;17.20;;;0.70;99.90;;;;;;6187793;23;20067;-83
2021/12/23 07:42:38;;;;;;;35.13;19.50;;;0.70;99.90;;;;;;6187281;23;20036;-82
2021/12/23 07:45:05;;;;;;;33.05;16.67;;;0.60;99.90;;;;;;6163732;23;20029;-82
2021/12/23 07:47:32;;;;;;;34.35;17.27;;;0.60;99.90;;;;;;6188036;23;20357;-82
2021/12/23 07:49:58;;;;;;;34.35;17.98;;;0.60;99.90;;;;;;6212756;23;20527;-82
2021/12/23 07:52:24;;;;;;;34.85;19.27;;;0.60;99.90;;;;;;6187157;23;20024;-82
2021/12/23 07:54:52;;;;;;;36.83;19.17;;;0.60;99.90;;;;;;6221352;23;20028;-83
2021/12/23 07:57:18;;;;;;;30.40;17.65;;;0.60;99.90;;;;;;6188074;23;20104;-82
2021/12/23 07:59:43;;;;;;;30.27;17.83;;;0.60;99.90;;;;;;6162767;23;20032;-81
2021/12/23 08:02:09;;;;;;;32.80;18.67;;;0.60;99.90;;;;;;6187174;23;20096;-82
2021/12/23 08:04:36;;;;;;;33.42;18.17;;;0.60;99.90;;;;;;6186577;23;20032;-81
2021/12/23 08:07:03;;;;;;;36.85;19.50;;;0.60;99.90;;;;;;6186330;23;20016;-81
2021/12/23 08:09:30;;;;;;;35.65;19.23;;;0.60;99.90;;;;;;6187216;23;20025;-82
2021/12/23 08:11:59;;;;;;;35.50;19.52;;;0.60;99.90;;;;;;6187306;23;20399;-82
2021/12/23 08:14:24;;;;;;;38.63;18.88;;;0.60;99.90;;;;;;6162400;23;20357;-83
2021/12/23 08:16:50;;;;;;;34.25;20.00;;;0.60;99.90;;;;;;6186907;23;20024;-81
2021/12/23 08:19:16;;;;;;;37.65;19.05;;;0.60;99.90;;;;;;6186001;23;20360;-82
2021/12/23 08:21:41;;;;;;;34.58;19.80;;;0.60;99.90;;;;;;6186727;23;20020;-83
2021/12/23 08:24:07;;;;;;;36.72;20.10;;;0.50;99.90;;;;;;6187008;23;20074;-81
2021/12/23 08:26:42;;;;;;;37.47;19.42;;;0.50;99.90;;;;;;6186689;23;20025;-81
2021/12/23 08:29:17;;;;;;;30.55;18.20;;;0.50;99.90;;;;;;6195210;23;20052;-83
2021/12/23 08:31:43;;;;;;;;;;;0.50;99.90;;;;;;6189823;23;20436;-81
2021/12/23 08:34:17;;;;;;;34.35;18.67;;;0.50;99.90;;;;;;6187596;23;19923;-81
2021/12/23 08:36:42;;;;;;;44.50;22.23;;;0.50;99.90;;;;;;6162601;23;20020;-81
2021/12/23 08:39:08;;;;;;;40.85;19.70;;;0.60;99.90;;;;;;6161971;23;20410;-83
2021/12/23 08:41:34;;;;;;;43.22;21.40;;;0.50;99.90;;;;;;6187471;23;20027;-81
2021/12/23 08:44:00;;;;;;;36.53;19.58;;;0.50;99.90;;;;;;6211277;23;20028;-81
2021/12/23 08:46:25;;;;;;;39.30;22.83;;;0.50;99.90;;;;;;6187147;23;20064;-81
2021/12/23 08:48:51;;;;;;;44.75;21.40;;;0.50;99.90;;;;;;6187321;23;20016;-83
2021/12/23 08:51:17;;;;;;;37.67;20.35;;;0.50;99.90;;;;;;6187104;23;20464;-82
2021/12/23 08:53:43;;;;;;;40.08;20.45;;;0.50;99.90;;;;;;6186813;23;20028;-81
2021/12/23 08:56:08;;;;;;;35.53;20.67;;;0.60;99.90;;;;;;6188363;23;20394;-82
2021/12/23 08:58:36;;;;;;;37.75;21.15;;;0.50;99.90;;;;;;6187902;23;20099;-81
2021/12/23 09:01:04;;;;;;;42.17;22.45;;;0.50;99.90;;;;;;6162396;23;20527;-82
2021/12/23 09:03:32;;;;;;;42.55;22.92;;;0.50;99.90;;;;;;6187620;23;20103;-81
2021/12/23 09:06:04;;;;;;;39.92;23.55;;;0.50;99.90;;;;;;6188130;23;20025;-82
2021/12/23 09:08:33;;;;;;;42.17;24.17;;;0.60;99.90;;;;;;6218845;23;20023;-82
2021/12/23 09:11:01;;;;;;;44.72;23.55;;;0.50;99.90;;;;;;6187190;23;20024;-82
2021/12/23 09:13:29;;;;;;;39.28;21.48;;;0.50;99.90;;;;;;6187364;23;20024;-83
2021/12/23 09:15:55;;;;;;;46.28;22.88;;;0.50;99.90;;;;;;6161985;23;20048;-83
2021/12/23 09:18:29;;;;;;;;;;;0.60;99.90;;;;;;6187977;23;20024;-82
2021/12/23 09:20:56;;;;;;;43.03;22.50;;;0.60;99.90;;;;;;6185746;23;19954;-83
2021/12/23 09:23:23;;;;;;;45.35;23.20;;;0.50;99.90;;;;;;6187181;23;20021;-83
2021/12/23 09:25:50;;;;;;;40.90;22.80;;;0.50;99.90;;;;;;6185701;23;20029;-83
2021/12/23 09:28:51;;;;;;;49.83;26.35;;;0.50;99.90;;;;;;6187157;23;20128;-83
2021/12/23 09:34:02;;;;;;;44.53;25.20;;;0.60;99.90;;;;;;6186775;23;20021;-84
2021/12/23 09:36:28;;;;;;;48.10;25.77;;;0.60;99.90;;;;;;6188106;23;20083;-82
2021/12/23 09:38:53;;;;;;;46.95;24.35;;;0.50;99.90;;;;;;6192614;23;20052;-84
2021/12/23 09:41:29;;;;;;;52.08;27.30;;;0.50;99.90;;;;;;6188712;23;20021;-83
2021/12/23 09:43:57;;;;;;;46.33;26.25;;;0.50;99.90;;;;;;6187595;23;20024;-85
2021/12/23 09:46:24;;;;;;;51.83;27.30;;;0.50;99.90;;;;;;6186692;23;20480;-84
2021/12/23 09:48:50;;;;;;;51.78;27.52;;;0.50;99.90;;;;;;6186649;23;20021;-83
2021/12/23 09:51:19;;;;;;;52.13;28.00;;;0.50;99.90;;;;;;6162672;23;20052;-83
2021/12/23 09:53:54;;;;;;;58.25;29.08;;;0.50;99.90;;;;;;6187153;23;20104;-82
2021/12/23 09:56:21;;;;;;;52.83;28.17;;;0.60;99.90;;;;;;6187334;23;20385;-84
2021/12/23 09:58:47;;;;;;;56.10;30.40;;;0.60;99.90;;;;;;6187024;23;20074;-84
2021/12/23 10:01:13;;;;;;;61.65;30.00;;;0.50;99.90;;;;;;6160951;23;20107;-85
2021/12/23 10:03:42;;;;;;;65.88;34.42;;;0.50;99.90;;;;;;6162616;23;20476;-85
2021/12/23 10:06:09;;;;;;;62.47;30.70;;;0.50;99.90;;;;;;6186830;23;20024;-85
2021/12/23 10:08:38;;;;;;;64.45;31.27;;;0.50;99.90;;;;;;6139890;23;20027;-84
2021/12/23 10:31:06;;;;;;;75.93;35.35;;;0.50;99.90;;;;;;6187816;23;20071;-84
2021/12/23 10:39:43;;;;;;;78.85;37.22;;;0.50;99.90;;;;;;6156589;23;20028;-84
2021/12/23 10:42:34;;;;;;;82.65;37.55;;;0.50;99.90;;;;;;6157018;23;20028;-84
2021/12/23 10:45:10;;;;;;;94.07;38.75;;;0.50;99.90;;;;;;6132431;23;20507;-84
2021/12/23 10:50:27;;;;;;;92.65;41.92;;;0.60;99.90;;;;;;6156649;23;20036;-83
2021/12/23 10:53:38;;;;;;;90.25;41.72;;;0.60;99.90;;;;;;6156790;23;20028;-85
2021/12/23 10:59:20;;;;;;;94.50;40.22;;;0.60;99.90;;;;;;6156919;23;20430;-84
2021/12/23 11:02:14;;;;;;;97.03;39.88;;;0.60;99.90;;;;;;6176956;23;20116;-84
2021/12/23 11:39:07;;;;;;;103.05;41.28;;;0.70;99.90;;;;;;6069087;23;20487;-84
2021/12/23 11:41:53;;;;;;;98.13;40.35;;;0.70;99.90;;;;;;6067872;23;20084;-85
2021/12/23 11:44:20;;;;;;;97.28;42.75;;;0.70;99.90;;;;;;6096049;23;20033;-86
2021/12/23 11:46:53;;;;;;;106.32;42.55;;;0.70;99.90;;;;;;6111099;23;20107;-84
2021/12/23 11:49:21;;;;;;;100.97;42.53;;;0.70;99.90;;;;;;6186865;23;20487;-84
2021/12/23 11:54:19;;;;;;;106.88;43.55;;;0.80;99.90;;;;;;6209946;23;20488;-84
2021/12/23 11:56:54;;;;;;;100.68;43.75;;;0.80;99.90;;;;;;6214523;23;20021;-85
2021/12/23 11:59:20;;;;;;;103.45;41.67;;;0.80;99.90;;;;;;6213072;23;20031;-85
2021/12/23 12:01:54;;;;;;;117.30;44.00;;;0.80;99.90;;;;;;6187322;23;20052;-84
2021/12/23 12:04:27;;;;;;;110.03;42.45;;;0.80;99.90;;;;;;6187356;23;20078;-84
2021/12/23 12:07:21;;;;;;;105.03;44.33;;;0.80;99.90;;;;;;6156009;23;20025;-84
2021/12/23 12:10:06;;;;;;;95.43;42.38;;;0.90;99.90;;;;;;6156274;23;20021;-84
2021/12/23 12:12:34;;;;;;;87.32;39.00;;;0.90;99.90;;;;;;6131159;23;20021;-84
2021/12/23 12:15:00;;;;;;;97.28;40.45;;;0.90;99.90;;;;;;6155682;23;20100;-84
2021/12/23 12:17:26;;;;;;;96.05;40.65;;;0.90;99.90;;;;;;6165417;23;20029;-83
2021/12/23 12:20:34;;;;;;;98.53;40.25;;;0.90;99.90;;;;;;6131511;23;20021;-84
2021/12/23 12:23:22;;;;;;;94.95;39.97;;;0.90;99.90;;;;;;6131490;23;20504;-84
2021/12/23 12:25:53;;;;;;;113.13;43.42;;;0.90;99.90;;;;;;6132090;23;20030;-83
2021/12/23 12:28:43;;;;;;;103.32;42.40;;;0.90;99.90;;;;;;6130601;23;20020;-84
2021/12/23 12:31:16;;;;;;;97.60;39.92;;;1.00;99.90;;;;;;6129937;23;20029;-82
2021/12/23 12:34:06;;;;;;;99.50;40.05;;;0.90;99.90;;;;;;6131669;23;20021;-84
2021/12/23 12:36:45;;;;;;;99.07;43.97;;;1.00;99.90;;;;;;6132239;23;20025;-84
2021/12/23 12:39:10;;;;;;;98.18;39.58;;;1.00;99.90;;;;;;6153146;23;20032;-84
2021/12/23 12:41:38;;;;;;;100.88;41.58;;;1.00;99.90;;;;;;6155613;23;20025;-84
2021/12/23 12:44:11;;;;;;;101.28;42.38;;;1.00;99.90;;;;;;6156144;23;20029;-84
2021/12/23 12:46:44;;;;;;;98.45;40.35;;;1.00;99.90;;;;;;6135946;23;20028;-84
2021/12/23 12:49:29;;;;;;;90.57;39.33;;;1.00;99.90;;;;;;6131527;23;20025;-84
2021/12/23 12:52:10;;;;;;;108.15;43.53;;;1.10;99.90;;;;;;6155414;23;20056;-84
2021/12/23 12:55:03;;;;;;;111.25;44.70;;;1.00;99.90;;;;;;6130478;23;20112;-84
2021/12/23 12:58:07;;;;;;;101.28;43.22;;;1.00;99.90;;;;;;6099622;23;20029;-85
2021/12/23 13:00:55;;;;;;;107.80;44.30;;;1.00;99.90;;;;;;6096232;23;20129;-84
2021/12/23 13:03:25;;;;;;;117.68;46.92;;;1.00;99.90;;;;;;6096508;23;20025;-84
2021/12/23 13:05:53;;;;;;;107.35;44.25;;;1.00;99.90;;;;;;6073096;23;20084;-84
2021/12/23 13:08:40;;;;;;;113.78;48.00;;;1.10;99.90;;;;;;6049009;23;20057;-86
2021/12/23 13:11:11;;;;;;;121.90;46.63;;;1.10;99.90;;;;;;6147392;23;20021;-85
2021/12/23 13:13:43;;;;;;;119.07;48.38;;;1.10;99.90;;;;;;6125754;23;20029;-85
2021/12/23 13:16:23;;;;;;;109.22;43.30;;;1.10;99.90;;;;;;6129148;23;20457;-84
2021/12/23 13:19:18;;;;;;;115.35;45.20;;;1.10;99.90;;;;;;6129686;23;20120;-84
2021/12/23 13:21:50;;;;;;;110.72;45.67;;;1.10;99.90;;;;;;6151077;23;20021;-85
2021/12/23 13:24:39;;;;;;;116.38;45.22;;;1.10;99.90;;;;;;6126371;23;20025;-84
2021/12/23 13:27:05;;;;;;;112.93;45.60;;;1.10;99.90;;;;;;6092054;23;20026;-85
2021/12/23 13:29:33;;;;;;;120.80;44.00;;;1.10;99.90;;;;;;6096938;23;20044;-86
2021/12/23 13:32:01;;;;;;;113.60;44.38;;;1.20;99.90;;;;;;6150719;23;20036;-85
2021/12/23 13:34:29;;;;;;;117.82;46.67;;;1.20;99.90;;;;;;6101588;23;20041;-84
2021/12/23 13:36:58;;;;;;;128.43;45.75;;;1.20;99.90;;;;;;6150830;23;20025;-84
2021/12/23 13:39:47;;;;;;;111.20;44.47;;;1.20;99.90;;;;;;6150812;23;20036;-86
2021/12/23 13:42:15;;;;;;;112.00;43.30;;;1.20;99.90;;;;;;6151922;23;20065;-85
2021/12/23 13:44:46;;;;;;;106.00;43.83;;;1.20;99.90;;;;;;6126619;23;20334;-84
2021/12/23 13:47:26;;;;;;;112.25;46.45;;;1.20;99.90;;;;;;6152794;23;20030;-85
2021/12/23 13:49:54;;;;;;;110.85;43.08;;;1.20;99.90;;;;;;6153015;23;20052;-84
2021/12/23 13:52:33;;;;;;;122.18;45.70;;;1.20;99.90;;;;;;6132841;23;20032;-84
2021/12/23 13:55:04;;;;;;;117.47;45.65;;;1.20;99.90;;;;;;6128220;23;20036;-85
2021/12/23 13:57:35;;;;;;;119.15;48.83;;;1.30;99.90;;;;;;6113642;23;20021;-85
2021/12/23 14:00:14;;;;;;;121.72;46.67;;;1.20;99.90;;;;;;6184057;23;20033;-86
2021/12/23 14:02:40;;;;;;;117.85;45.95;;;1.30;99.90;;;;;;6158888;23;20052;-85
2021/12/23 14:05:08;;;;;;;121.22;46.53;;;1.30;99.90;;;;;;6133876;23;20103;-85